Huvudsida
METAR-TAF:

METAR-TAF

Flygplatser :

Oban Airport

Oban, Skottland

latitud: 56-27-49N, longitud: 5-24-00W, höjd: 7 m

Aktuellt väderrapport

Denna rapport gjordes för 15 timmar och 44 minuter sedan, klockan 15:50 UTC
Vind 17 kt från väst/sydväst
Temperatur 9°C
Fuktighet 87%
Tryck 998 hPa
Sikt 10 km eller mer
Få moln på en höjd av 1600 ft
Brutna moln på en höjd av 3000 ft
skurar i närheten

METAR: EGEO 211550Z 24017KT 9999 VCSH FEW016 BKN030 09/07 Q0998

Tid: 07:34 (07:34 UTC)

Väderprognos

Denna rapport gjordes för 17 timmar och 37 minuter sedan, klockan 13:57 UTC
Prognos gäller från 21 kl. 15 UTC till 21 kl. 17 UTC
Vind 18 kt från sydväst i byarna ända upp till 28 kt
Sikt 10 km eller mer
Spridda moln på en höjd av 2000 ft
Temporärt
från 21 kl. 15 UTC till 21 kl. 17 UTC
Vind 25 kt från väst/sydväst i byarna ända upp till 38 kt
Sikt: 3000 m
Brutna moln på en höjd av 800 ft
regn, duggregn

TAF: EGEO 211357Z 2115/2117 23018G28KT 9999 SCT020 TEMPO 2115/2117 24025G38KT 3000 RADZ BKN008

Aktuella väderrapporter och prognoser från 4000 flygplatser (METAR- och TAF-rapporter).

De tillgängliga stationerna syns som gula och röda prickar på kartan.

För musen över prickarna för att se namnen på stationerna.

Klicka sedan för att få väderrapporter och prognoser.

För att ändra kartan: Klicka på de gröna knapparna med ett svart kors på för att zooma in; den gröna knappen med ett streck på för att zooma ut; eller på de gröna pilarna för angränsande kartor.


METAR-TAF: